NCAR-RAP Real-Time Weather Data

Output produced by METARs form (12 May 2021  11:48 UTC)
found at http://weather.rap.ucar.edu/surface/
 
KBGR 121053Z 29008G17KT 10SM FEW010 BKN025 07/06 A2986 RMK AO2 RAE10B14E23 SLP110 P0000 T00720056
KBGR 121012Z 30009KT 10SM BKN028 OVC037 07/05 A2984 RMK AO2 RAE10 P0000 T00670050
KBGR 120953Z 30007KT 10SM -RA SCT026 BKN033 OVC042 07/05 A2983 RMK AO2 RAB23 SLP101 P0000 T00670050
KBGR 120853Z 28005KT 10SM SCT021 OVC029 06/05 A2982 RMK AO2 RAE48 SLP096 P0001 60012 T00610050 52001
KBGR 120814Z 26007KT 10SM -RA SCT024 OVC035 06/04 A2981 RMK AO2 P0001 T00610044
KBGR 120753Z 26005KT 7SM -RA OVC026 06/04 A2981 RMK AO2 SLP095 P0010 T00610044
KBGR 120703Z 29004KT 7SM -RA BKN026 OVC032 06/04 A2982 RMK AO2 P0001 T00610044
KBGR 120653Z 29005KT 10SM -RA BKN030 OVC044 06/04 A2982 RMK AO2 RAB05 SLP096 P0001 T00610039
KBGR 120553Z 26004KT 10SM BKN038 BKN090 OVC110 07/04 A2981 RMK AO2 SLP095 60002 T00670039 10094 20067 58009
KBGR 120453Z 23004KT 10SM OVC070 07/05 A2982 RMK AO2 SLP097 T00720050 401560072
KBGR 120353Z 25004KT 10SM BKN055 OVC070 08/06 A2984 RMK AO2 SLP102 T00780056
KBGR 120253Z 25004KT 10SM BKN050 OVC070 08/06 A2984 RMK AO2 SLP105 60002 T00780061 50002
KBGR 120153Z 25004KT 10SM FEW050 SCT075 BKN120 08/05 A2985 RMK AO2 RAE15 SLP108 P0000 T00780050
KBGR 120053Z 25009G17KT 10SM -RA FEW040 OVC048 09/04 A2984 RMK AO2 SLP105 P0002 T00890039
KBGR 112353Z 25007KT 10SM -RA FEW031 BKN055 OVC100 09/06 A2983 RMK AO2 RAB46 SLP102 P0000 60003 T00940056 10139 20094 51016
KBGR 112253Z 29003KT 10SM SCT042 BKN075 BKN110 11/07 A2982 RMK AO2 RAE18B37E50 SLP098 P0000 T01110067
KBGR 112153Z 25010G19KT 10SM -RA BKN047 BKN055 OVC100 10/06 A2981 RMK AO2 RAB27 SLP095 BINOVC P0001 T01000056
KBGR 112053Z 30010KT 10SM FEW045 SCT060 BKN100 13/03 A2979 RMK AO2 SLP086 60002 T01280033 58011
KBGR 111953Z 32006KT 10SM SCT035 BKN095 12/04 A2980 RMK AO2 SLP090 T01220044